PWSweather.com
Personal Weather Stations
Station Observations
WATERF01
WaterfordIE

WaterfordIE

Lat: 52.2412507, Lon: -7.1414691

Elevation: 65

Station Type: Davis Vantage Vue

Latest ConditionsUpdated 8:30:02 PM GMT Friday, Jul 25, 2014
Currently Today's Max Today's Min Today's Average
Temperature 66.6°F19.2°C 77.2°F25.1°C 59.5°F15.3°C 69.3°F20.7°C
Dew Point 58.8°F14.9°C 63.3°F17.4°C 57.2°F14.0°C 60.2°F15.7°C
Winds 1.1 mph SE1.8 kmh SE 8.6 mph SE13.8 kmh SE - 4.4 mph 7.1 kmh
Wind Gusts 1.8 mph2.9 kmh 13.0 mph20.9 kmh - -
Humidity 76% 93% 56% 75%
Pressure 30.03 in1016.9 mb 30.05 in1017.6 mb 30.01 in1016.3 mb -
Hour Temp Dew Point Humidity Winds Wind Gusts Pressure Precip Precip Rate Daily Precip Total
08:30 PM 66.6°F19.2°C 58.8°F14.9°C 76% 1.1 mph SE1.8 kmh SE 1.8 mph2.9 kmh 30.03 in1016.9 mb 0.00 in0.0 mm 0.00 in/hr0.0 mm/hr 0.00 in0.0 mm
08:20 PM 66.8°F19.3°C 58.9°F14.9°C 76% 1.2 mph S1.9 kmh S 1.8 mph2.9 kmh 30.03 in1016.9 mb 0.00 in0.0 mm 0.00 in/hr0.0 mm/hr 0.00 in0.0 mm
08:10 PM 67.1°F19.5°C 58.9°F14.9°C 75% 1.6 mph SSE2.6 kmh SSE 1.8 mph2.9 kmh 30.03 in1016.9 mb 0.00 in0.0 mm 0.00 in/hr0.0 mm/hr 0.00 in0.0 mm
08:00 PM 67.4°F19.7°C 58.9°F14.9°C 74% 1.7 mph S2.7 kmh S 1.8 mph2.9 kmh 30.03 in1016.9 mb 0.00 in0.0 mm 0.00 in/hr0.0 mm/hr 0.00 in0.0 mm
07:50 PM 67.8°F19.9°C 58.4°F14.7°C 72% 1.7 mph SSW2.7 kmh SSW 2.8 mph4.5 kmh 30.03 in1016.9 mb 0.00 in0.0 mm 0.00 in/hr0.0 mm/hr 0.00 in0.0 mm
07:40 PM 67.9°F19.9°C 58.5°F14.7°C 72% 1.3 mph SSE2.1 kmh SSE 2.8 mph4.5 kmh 30.03 in1016.9 mb 0.00 in0.0 mm 0.00 in/hr0.0 mm/hr 0.00 in0.0 mm
07:30 PM 68.1°F20.1°C 58.4°F14.7°C 71% 1.1 mph S1.8 kmh S 2.1 mph3.4 kmh 30.03 in1016.9 mb 0.00 in0.0 mm 0.00 in/hr0.0 mm/hr 0.00 in0.0 mm
07:20 PM 68.6°F20.3°C 58.4°F14.7°C 70% 1.9 mph S3.1 kmh S 2.8 mph4.5 kmh 30.03 in1016.9 mb 0.00 in0.0 mm 0.00 in/hr0.0 mm/hr 0.00 in0.0 mm
07:10 PM 69.2°F20.7°C 59.0°F15.0°C 70% 2.9 mph SW4.7 kmh SW 3.8 mph6.1 kmh 30.03 in1016.9 mb 0.00 in0.0 mm 0.00 in/hr0.0 mm/hr 0.00 in0.0 mm
07:00 PM 69.7°F20.9°C 59.1°F15.1°C 69% 3.7 mph SSW6.0 kmh SSW 4.6 mph7.4 kmh 30.03 in1016.9 mb 0.00 in0.0 mm 0.00 in/hr0.0 mm/hr 0.00 in0.0 mm
06:50 PM 70.0°F21.1°C 59.8°F15.4°C 70% 3.1 mph SW5.0 kmh SW 4.4 mph7.1 kmh 30.03 in1016.9 mb 0.00 in0.0 mm 0.00 in/hr0.0 mm/hr 0.00 in0.0 mm
06:40 PM 70.1°F21.2°C 60.3°F15.7°C 71% 3.8 mph SW6.1 kmh SW 4.5 mph7.2 kmh 30.03 in1016.9 mb 0.00 in0.0 mm 0.00 in/hr0.0 mm/hr 0.00 in0.0 mm
06:30 PM 71.0°F21.7°C 60.3°F15.7°C 69% 4.0 mph SSE6.4 kmh SSE 4.5 mph7.2 kmh 30.03 in1016.9 mb 0.00 in0.0 mm 0.00 in/hr0.0 mm/hr 0.00 in0.0 mm
06:20 PM 71.6°F22.0°C 60.1°F15.6°C 67% 3.9 mph S6.3 kmh S 4.7 mph7.6 kmh 30.03 in1016.9 mb 0.00 in0.0 mm 0.00 in/hr0.0 mm/hr 0.00 in0.0 mm
06:10 PM 72.6°F22.6°C 60.1°F15.6°C 65% 4.8 mph SSW7.7 kmh SSW 5.1 mph8.2 kmh 30.03 in1016.9 mb 0.00 in0.0 mm 0.00 in/hr0.0 mm/hr 0.00 in0.0 mm
06:00 PM 73.8°F23.2°C 60.4°F15.8°C 63% 5.5 mph S8.9 kmh S 6.4 mph10.3 kmh 30.03 in1016.9 mb 0.00 in0.0 mm 0.00 in/hr0.0 mm/hr 0.00 in0.0 mm
05:50 PM 73.9°F23.3°C 60.1°F15.6°C 62% 5.6 mph WSW9.0 kmh WSW 6.8 mph10.9 kmh 30.03 in1016.9 mb 0.00 in0.0 mm 0.00 in/hr0.0 mm/hr 0.00 in0.0 mm
05:40 PM 73.7°F23.2°C 59.9°F15.5°C 62% 4.7 mph SSW7.6 kmh SSW 5.6 mph9.0 kmh 30.03 in1016.9 mb 0.00 in0.0 mm 0.00 in/hr0.0 mm/hr 0.00 in0.0 mm
05:30 PM 74.1°F23.4°C 59.8°F15.4°C 61% 6.7 mph SE10.8 kmh SE 7.2 mph11.6 kmh 30.03 in1016.9 mb 0.00 in0.0 mm 0.00 in/hr0.0 mm/hr 0.00 in0.0 mm
05:20 PM 75.7°F24.3°C 59.9°F15.5°C 58% 6.1 mph S9.8 kmh S 7.4 mph11.9 kmh 30.03 in1016.9 mb 0.00 in0.0 mm 0.00 in/hr0.0 mm/hr 0.00 in0.0 mm
05:10 PM 75.7°F24.3°C 59.9°F15.5°C 58% 7.0 mph NW11.3 kmh NW 9.9 mph15.9 kmh 30.02 in1016.6 mb 0.00 in0.0 mm 0.00 in/hr0.0 mm/hr 0.00 in0.0 mm
05:00 PM 77.1°F25.1°C 60.7°F15.9°C 57% 6.4 mph S10.3 kmh S 6.7 mph10.8 kmh 30.02 in1016.6 mb 0.00 in0.0 mm 0.00 in/hr0.0 mm/hr 0.00 in0.0 mm
04:50 PM 76.7°F24.8°C 61.8°F16.6°C 60% 4.0 mph S6.4 kmh S 5.5 mph8.9 kmh 30.02 in1016.6 mb 0.00 in0.0 mm 0.00 in/hr0.0 mm/hr 0.00 in0.0 mm
04:40 PM 76.9°F24.9°C 60.5°F15.8°C 57% 7.3 mph SE11.7 kmh SE 7.9 mph12.7 kmh 30.02 in1016.6 mb 0.00 in0.0 mm 0.00 in/hr0.0 mm/hr 0.00 in0.0 mm
04:30 PM 77.0°F25.0°C 60.6°F15.9°C 57% 4.2 mph NNW6.8 kmh NNW 7.9 mph12.7 kmh 30.01 in1016.3 mb 0.00 in0.0 mm 0.00 in/hr0.0 mm/hr 0.00 in0.0 mm
04:20 PM 77.1°F25.1°C 60.1°F15.6°C 56% 6.6 mph SE10.6 kmh SE 8.7 mph14.0 kmh 30.01 in1016.3 mb 0.00 in0.0 mm 0.00 in/hr0.0 mm/hr 0.00 in0.0 mm
04:10 PM 77.2°F25.1°C 60.8°F16.0°C 57% 6.9 mph ESE11.1 kmh ESE 8.3 mph13.4 kmh 30.02 in1016.6 mb 0.00 in0.0 mm 0.00 in/hr0.0 mm/hr 0.00 in0.0 mm
04:00 PM 76.9°F24.9°C 60.5°F15.8°C 57% 7.0 mph ENE11.3 kmh ENE 7.5 mph12.1 kmh 30.02 in1016.6 mb 0.00 in0.0 mm 0.00 in/hr0.0 mm/hr 0.00 in0.0 mm
03:50 PM 76.6°F24.8°C 61.2°F16.2°C 59% 4.9 mph ENE7.9 kmh ENE 7.0 mph11.3 kmh 30.02 in1016.6 mb 0.00 in0.0 mm 0.00 in/hr0.0 mm/hr 0.00 in0.0 mm
03:40 PM 76.9°F24.9°C 60.5°F15.8°C 57% 6.9 mph S11.1 kmh S 9.3 mph15.0 kmh 30.02 in1016.6 mb 0.00 in0.0 mm 0.00 in/hr0.0 mm/hr 0.00 in0.0 mm
03:30 PM 76.4°F24.7°C 61.0°F16.1°C 59% 5.6 mph SE9.0 kmh SE 8.2 mph13.2 kmh 30.02 in1016.6 mb 0.00 in0.0 mm 0.00 in/hr0.0 mm/hr 0.00 in0.0 mm
03:20 PM 76.8°F24.9°C 60.9°F16.1°C 58% 8.5 mph ESE13.7 kmh ESE 10.9 mph17.5 kmh 30.02 in1016.6 mb 0.00 in0.0 mm 0.00 in/hr0.0 mm/hr 0.00 in0.0 mm
03:10 PM 76.8°F24.9°C 60.9°F16.1°C 58% 6.3 mph ESE10.1 kmh ESE 7.5 mph12.1 kmh 30.03 in1016.9 mb 0.00 in0.0 mm 0.00 in/hr0.0 mm/hr 0.00 in0.0 mm
03:00 PM 76.2°F24.6°C 60.8°F16.0°C 59% 8.5 mph ESE13.7 kmh ESE 10.6 mph17.1 kmh 30.03 in1016.9 mb 0.00 in0.0 mm 0.00 in/hr0.0 mm/hr 0.00 in0.0 mm
02:50 PM 76.6°F24.8°C 61.2°F16.2°C 59% 5.9 mph SE9.5 kmh SE 7.6 mph12.2 kmh 30.03 in1016.9 mb 0.00 in0.0 mm 0.00 in/hr0.0 mm/hr 0.00 in0.0 mm
02:40 PM 76.7°F24.8°C 60.8°F16.0°C 58% 6.3 mph S10.1 kmh S 8.3 mph13.4 kmh 30.03 in1016.9 mb 0.00 in0.0 mm 0.00 in/hr0.0 mm/hr 0.00 in0.0 mm
02:30 PM 76.7°F24.8°C 61.3°F16.3°C 59% 7.7 mph SE12.4 kmh SE 10.5 mph16.9 kmh 30.03 in1016.9 mb 0.00 in0.0 mm 0.00 in/hr0.0 mm/hr 0.00 in0.0 mm
02:20 PM 76.7°F24.8°C 61.3°F16.3°C 59% 7.0 mph ESE11.3 kmh ESE 13.0 mph20.9 kmh 30.03 in1016.9 mb 0.00 in0.0 mm 0.00 in/hr0.0 mm/hr 0.00 in0.0 mm
02:10 PM 76.5°F24.7°C 60.6°F15.9°C 58% 8.1 mph SE13.0 kmh SE 10.2 mph16.4 kmh 30.03 in1016.9 mb 0.00 in0.0 mm 0.00 in/hr0.0 mm/hr 0.00 in0.0 mm
02:00 PM 76.6°F24.8°C 60.7°F15.9°C 58% 7.1 mph SSE11.4 kmh SSE 9.0 mph14.5 kmh 30.03 in1016.9 mb 0.00 in0.0 mm 0.00 in/hr0.0 mm/hr 0.00 in0.0 mm
01:50 PM 76.8°F24.9°C 61.9°F16.6°C 60% 6.6 mph ESE10.6 kmh ESE 13.0 mph20.9 kmh 30.03 in1016.9 mb 0.00 in0.0 mm 0.00 in/hr0.0 mm/hr 0.00 in0.0 mm
01:40 PM 76.3°F24.6°C 61.4°F16.3°C 60% 4.3 mph ESE6.9 kmh ESE 8.2 mph13.2 kmh 30.04 in1017.3 mb 0.00 in0.0 mm 0.00 in/hr0.0 mm/hr 0.00 in0.0 mm
12:50 PM 76.6°F24.8°C 62.1°F16.7°C 61% 8.6 mph SE13.8 kmh SE 9.2 mph14.8 kmh 30.04 in1017.3 mb 0.00 in0.0 mm 0.00 in/hr0.0 mm/hr 0.00 in0.0 mm
12:40 PM 76.4°F24.7°C 62.4°F16.9°C 62% 4.7 mph SE7.6 kmh SE 5.3 mph8.5 kmh 30.04 in1017.3 mb 0.00 in0.0 mm 0.00 in/hr0.0 mm/hr 0.00 in0.0 mm
12:30 PM 76.6°F24.8°C 62.6°F17.0°C 62% 8.2 mph SSE13.2 kmh SSE 10.4 mph16.7 kmh 30.04 in1017.3 mb 0.00 in0.0 mm 0.00 in/hr0.0 mm/hr 0.00 in0.0 mm
12:20 PM 76.6°F24.8°C 62.6°F17.0°C 62% 7.4 mph SW11.9 kmh SW 8.6 mph13.8 kmh 30.04 in1017.3 mb 0.00 in0.0 mm 0.00 in/hr0.0 mm/hr 0.00 in0.0 mm
12:10 PM 76.3°F24.6°C 62.8°F17.1°C 63% 8.0 mph SE12.9 kmh SE 9.9 mph15.9 kmh 30.04 in1017.3 mb 0.00 in0.0 mm 0.00 in/hr0.0 mm/hr 0.00 in0.0 mm
12:00 PM 76.0°F24.4°C 62.5°F16.9°C 63% 8.1 mph ESE13.0 kmh ESE 10.0 mph16.1 kmh 30.04 in1017.3 mb 0.00 in0.0 mm 0.00 in/hr0.0 mm/hr 0.00 in0.0 mm
11:50 AM 76.7°F24.8°C 62.7°F17.1°C 62% 7.2 mph SE11.6 kmh SE 9.5 mph15.3 kmh 30.04 in1017.3 mb 0.00 in0.0 mm 0.00 in/hr0.0 mm/hr 0.00 in0.0 mm
11:40 AM 76.5°F24.7°C 63.0°F17.2°C 63% 6.4 mph SE10.3 kmh SE 6.7 mph10.8 kmh 30.04 in1017.3 mb 0.00 in0.0 mm 0.00 in/hr0.0 mm/hr 0.00 in0.0 mm
11:30 AM 76.9°F24.9°C 63.3°F17.4°C 63% 6.3 mph SSE10.1 kmh SSE 9.4 mph15.1 kmh 30.04 in1017.3 mb 0.00 in0.0 mm 0.00 in/hr0.0 mm/hr 0.00 in0.0 mm
11:20 AM 76.1°F24.5°C 63.1°F17.3°C 64% 5.7 mph S9.2 kmh S 8.2 mph13.2 kmh 30.04 in1017.3 mb 0.00 in0.0 mm 0.00 in/hr0.0 mm/hr 0.00 in0.0 mm
11:10 AM 75.8°F24.3°C 61.9°F16.6°C 62% 4.7 mph SSE7.6 kmh SSE 7.5 mph12.1 kmh 30.04 in1017.3 mb 0.00 in0.0 mm 0.00 in/hr0.0 mm/hr 0.00 in0.0 mm
11:00 AM 76.3°F24.6°C 62.3°F16.8°C 62% 3.4 mph SSE5.5 kmh SSE 12.2 mph19.6 kmh 30.04 in1017.3 mb 0.00 in0.0 mm 0.00 in/hr0.0 mm/hr 0.00 in0.0 mm
10:50 AM 76.0°F24.4°C 62.1°F16.7°C 62% 7.0 mph SE11.3 kmh SE 10.2 mph16.4 kmh 30.04 in1017.3 mb 0.00 in0.0 mm 0.00 in/hr0.0 mm/hr 0.00 in0.0 mm
10:40 AM 75.5°F24.2°C 62.5°F16.9°C 64% 4.5 mph NNE7.2 kmh NNE 6.4 mph10.3 kmh 30.04 in1017.3 mb 0.00 in0.0 mm 0.00 in/hr0.0 mm/hr 0.00 in0.0 mm
10:30 AM 76.2°F24.6°C 62.3°F16.8°C 62% 5.8 mph NE9.3 kmh NE 7.4 mph11.9 kmh 30.04 in1017.3 mb 0.00 in0.0 mm 0.00 in/hr0.0 mm/hr 0.00 in0.0 mm
10:20 AM 75.0°F23.9°C 62.4°F16.9°C 65% 3.7 mph NE6.0 kmh NE 4.7 mph7.6 kmh 30.04 in1017.3 mb 0.00 in0.0 mm 0.00 in/hr0.0 mm/hr 0.00 in0.0 mm
10:10 AM 75.0°F23.9°C 62.0°F16.7°C 64% 4.8 mph E7.7 kmh E 6.2 mph10.0 kmh 30.04 in1017.3 mb 0.00 in0.0 mm 0.00 in/hr0.0 mm/hr 0.00 in0.0 mm
10:00 AM 74.7°F23.7°C 61.7°F16.5°C 64% 3.4 mph E5.5 kmh E 6.7 mph10.8 kmh 30.04 in1017.3 mb 0.00 in0.0 mm 0.00 in/hr0.0 mm/hr 0.00 in0.0 mm
09:50 AM 74.1°F23.4°C 61.6°F16.4°C 65% 3.0 mph E4.8 kmh E 4.7 mph7.6 kmh 30.04 in1017.3 mb 0.00 in0.0 mm 0.00 in/hr0.0 mm/hr 0.00 in0.0 mm
09:40 AM 73.6°F23.1°C 61.6°F16.4°C 66% 3.6 mph SE5.8 kmh SE 4.8 mph7.7 kmh 30.04 in1017.3 mb 0.00 in0.0 mm 0.00 in/hr0.0 mm/hr 0.00 in0.0 mm
09:30 AM 73.6°F23.1°C 62.4°F16.9°C 68% 3.3 mph ESE5.3 kmh ESE 6.2 mph10.0 kmh 30.04 in1017.3 mb 0.00 in0.0 mm 0.00 in/hr0.0 mm/hr 0.00 in0.0 mm
09:20 AM 74.1°F23.4°C 62.0°F16.7°C 66% 3.7 mph ENE6.0 kmh ENE 4.8 mph7.7 kmh 30.04 in1017.3 mb 0.00 in0.0 mm 0.00 in/hr0.0 mm/hr 0.00 in0.0 mm
09:10 AM 73.1°F22.8°C 61.5°F16.4°C 67% 4.0 mph NE6.4 kmh NE 5.5 mph8.9 kmh 30.04 in1017.3 mb 0.00 in0.0 mm 0.00 in/hr0.0 mm/hr 0.00 in0.0 mm
09:00 AM 72.5°F22.5°C 61.3°F16.3°C 68% 1.8 mph ENE2.9 kmh ENE 4.6 mph7.4 kmh 30.04 in1017.3 mb 0.00 in0.0 mm 0.00 in/hr0.0 mm/hr 0.00 in0.0 mm
08:50 AM 72.0°F22.2°C 60.4°F15.8°C 67% 4.8 mph E7.7 kmh E 5.8 mph9.3 kmh 30.04 in1017.3 mb 0.00 in0.0 mm 0.00 in/hr0.0 mm/hr 0.00 in0.0 mm
08:40 AM 71.6°F22.0°C 60.9°F16.1°C 69% 3.2 mph E5.1 kmh E 6.3 mph10.1 kmh 30.04 in1017.3 mb 0.00 in0.0 mm 0.00 in/hr0.0 mm/hr 0.00 in0.0 mm
08:30 AM 71.2°F21.8°C 60.9°F16.1°C 70% 4.4 mph ESE7.1 kmh ESE 5.8 mph9.3 kmh 30.04 in1017.3 mb 0.00 in0.0 mm 0.00 in/hr0.0 mm/hr 0.00 in0.0 mm
08:20 AM 71.5°F21.9°C 61.2°F16.2°C 70% 4.0 mph E6.4 kmh E 5.4 mph8.7 kmh 30.03 in1016.9 mb 0.00 in0.0 mm 0.00 in/hr0.0 mm/hr 0.00 in0.0 mm
08:10 AM 70.4°F21.3°C 61.4°F16.3°C 73% 2.1 mph E3.4 kmh E 4.1 mph6.6 kmh 30.04 in1017.3 mb 0.00 in0.0 mm 0.00 in/hr0.0 mm/hr 0.00 in0.0 mm
08:00 AM 69.3°F20.7°C 61.4°F16.3°C 76% 1.9 mph E3.1 kmh E 2.9 mph4.7 kmh 30.04 in1017.3 mb 0.00 in0.0 mm 0.00 in/hr0.0 mm/hr 0.00 in0.0 mm
07:50 AM 68.3°F20.2°C 60.8°F16.0°C 77% 0.7 mph ESE1.1 kmh ESE 0.9 mph1.4 kmh 30.04 in1017.3 mb 0.00 in0.0 mm 0.00 in/hr0.0 mm/hr 0.00 in0.0 mm
07:40 AM 66.8°F19.3°C 60.8°F16.0°C 81% 1.0 mph E1.6 kmh E 2.8 mph4.5 kmh 30.04 in1017.3 mb 0.00 in0.0 mm 0.00 in/hr0.0 mm/hr 0.00 in0.0 mm
07:30 AM 65.8°F18.8°C 59.8°F15.4°C 81% 2.8 mph NNW4.5 kmh NNW 2.8 mph4.5 kmh 30.04 in1017.3 mb 0.00 in0.0 mm 0.00 in/hr0.0 mm/hr 0.00 in0.0 mm
07:20 AM 65.0°F18.3°C 60.1°F15.6°C 84% 1.5 mph WNW2.4 kmh WNW 3.7 mph6.0 kmh 30.04 in1017.3 mb 0.00 in0.0 mm 0.00 in/hr0.0 mm/hr 0.00 in0.0 mm
07:10 AM 64.1°F17.8°C 59.5°F15.3°C 85% 2.2 mph NNW3.5 kmh NNW 2.8 mph4.5 kmh 30.05 in1017.6 mb 0.00 in0.0 mm 0.00 in/hr0.0 mm/hr 0.00 in0.0 mm
07:00 AM 63.3°F17.4°C 58.7°F14.8°C 85% 3.6 mph NW5.8 kmh NW 4.7 mph7.6 kmh 30.05 in1017.6 mb 0.00 in0.0 mm 0.00 in/hr0.0 mm/hr 0.00 in0.0 mm
06:50 AM 62.4°F16.9°C 59.1°F15.1°C 89% 2.1 mph NW3.4 kmh NW 2.6 mph4.2 kmh 30.05 in1017.6 mb 0.00 in0.0 mm 0.00 in/hr0.0 mm/hr 0.00 in0.0 mm
06:40 AM 61.6°F16.4°C 58.3°F14.6°C 89% 2.6 mph NW4.2 kmh NW 3.7 mph6.0 kmh 30.05 in1017.6 mb 0.00 in0.0 mm 0.00 in/hr0.0 mm/hr 0.00 in0.0 mm
06:30 AM 61.3°F16.3°C 58.4°F14.7°C 90% 3.1 mph WNW5.0 kmh WNW 4.6 mph7.4 kmh 30.05 in1017.6 mb 0.00 in0.0 mm 0.00 in/hr0.0 mm/hr 0.00 in0.0 mm
06:20 AM 60.9°F16.1°C 58.0°F14.4°C 90% 3.7 mph NW6.0 kmh NW 4.5 mph7.2 kmh 30.04 in1017.3 mb 0.00 in0.0 mm 0.00 in/hr0.0 mm/hr 0.00 in0.0 mm
06:10 AM 60.8°F16.0°C 57.8°F14.3°C 90% 4.7 mph NW7.6 kmh NW 7.1 mph11.4 kmh 30.04 in1017.3 mb 0.00 in0.0 mm 0.00 in/hr0.0 mm/hr 0.00 in0.0 mm
06:00 AM 60.7°F15.9°C 57.8°F14.3°C 90% 4.4 mph NW7.1 kmh NW 5.6 mph9.0 kmh 30.04 in1017.3 mb 0.00 in0.0 mm 0.00 in/hr0.0 mm/hr 0.00 in0.0 mm
05:50 AM 60.3°F15.7°C 57.7°F14.3°C 91% 2.4 mph NW3.9 kmh NW 2.9 mph4.7 kmh 30.04 in1017.3 mb 0.00 in0.0 mm 0.00 in/hr0.0 mm/hr 0.00 in0.0 mm
05:40 AM 59.9°F15.5°C 57.6°F14.2°C 92% 3.0 mph NW4.8 kmh NW 4.6 mph7.4 kmh 30.04 in1017.3 mb 0.00 in0.0 mm 0.00 in/hr0.0 mm/hr 0.00 in0.0 mm
05:30 AM 59.6°F15.3°C 57.3°F14.1°C 92% 1.7 mph NW2.7 kmh NW 2.4 mph3.9 kmh 30.04 in1017.3 mb 0.00 in0.0 mm 0.00 in/hr0.0 mm/hr 0.00 in0.0 mm
05:20 AM 59.6°F15.3°C 57.3°F14.1°C 92% 4.9 mph NW7.9 kmh NW 6.8 mph10.9 kmh 30.04 in1017.3 mb 0.00 in0.0 mm 0.00 in/hr0.0 mm/hr 0.00 in0.0 mm
05:10 AM 59.5°F15.3°C 57.5°F14.2°C 93% 3.5 mph WNW5.6 kmh WNW 5.5 mph8.9 kmh 30.04 in1017.3 mb 0.00 in0.0 mm 0.00 in/hr0.0 mm/hr 0.00 in0.0 mm
05:00 AM 59.5°F15.3°C 57.2°F14.0°C 92% 1.2 mph W1.9 kmh W 2.6 mph4.2 kmh 30.04 in1017.3 mb 0.00 in0.0 mm 0.00 in/hr0.0 mm/hr 0.00 in0.0 mm
04:50 AM 59.8°F15.4°C 57.5°F14.2°C 92% 1.8 mph NW2.9 kmh NW 1.8 mph2.9 kmh 30.04 in1017.3 mb 0.00 in0.0 mm 0.00 in/hr0.0 mm/hr 0.00 in0.0 mm
04:40 AM 60.1°F15.6°C 57.8°F14.3°C 92% 2.3 mph NW3.7 kmh NW 3.8 mph6.1 kmh 30.03 in1016.9 mb 0.00 in0.0 mm 0.00 in/hr0.0 mm/hr 0.00 in0.0 mm
04:30 AM 60.4°F15.8°C 57.7°F14.3°C 91% 3.6 mph NW5.8 kmh NW 4.5 mph7.2 kmh 30.03 in1016.9 mb 0.00 in0.0 mm 0.00 in/hr0.0 mm/hr 0.00 in0.0 mm
04:20 AM 60.6°F15.9°C 58.0°F14.4°C 91% 2.4 mph NW3.9 kmh NW 4.1 mph6.6 kmh 30.03 in1016.9 mb 0.00 in0.0 mm 0.00 in/hr0.0 mm/hr 0.00 in0.0 mm
04:10 AM 60.8°F16.0°C 58.2°F14.6°C 91% 2.0 mph NW3.2 kmh NW 4.4 mph7.1 kmh 30.03 in1016.9 mb 0.00 in0.0 mm 0.00 in/hr0.0 mm/hr 0.00 in0.0 mm
04:00 AM 61.0°F16.1°C 58.4°F14.7°C 91% 2.3 mph NW3.7 kmh NW 4.0 mph6.4 kmh 30.03 in1016.9 mb 0.00 in0.0 mm 0.00 in/hr0.0 mm/hr 0.00 in0.0 mm
03:50 AM 61.3°F16.3°C 58.6°F14.8°C 91% 3.5 mph NW5.6 kmh NW 5.2 mph8.4 kmh 30.03 in1016.9 mb 0.00 in0.0 mm 0.00 in/hr0.0 mm/hr 0.00 in0.0 mm
03:40 AM 61.3°F16.3°C 59.0°F15.0°C 92% 3.1 mph NW5.0 kmh NW 3.8 mph6.1 kmh 30.03 in1016.9 mb 0.00 in0.0 mm 0.00 in/hr0.0 mm/hr 0.00 in0.0 mm
03:30 AM 61.4°F16.3°C 59.4°F15.2°C 93% 2.4 mph NW3.9 kmh NW 2.8 mph4.5 kmh 30.03 in1016.9 mb 0.00 in0.0 mm 0.00 in/hr0.0 mm/hr 0.00 in0.0 mm
03:20 AM 61.3°F16.3°C 59.3°F15.2°C 93% 3.3 mph NW5.3 kmh NW 5.5 mph8.9 kmh 30.03 in1016.9 mb 0.00 in0.0 mm 0.00 in/hr0.0 mm/hr 0.00 in0.0 mm
03:10 AM 61.5°F16.4°C 59.5°F15.3°C 93% 3.4 mph WNW5.5 kmh WNW 4.7 mph7.6 kmh 30.03 in1016.9 mb 0.00 in0.0 mm 0.00 in/hr0.0 mm/hr 0.00 in0.0 mm
03:00 AM 61.8°F16.6°C 59.4°F15.2°C 92% 2.0 mph W3.2 kmh W 3.6 mph5.8 kmh 30.03 in1016.9 mb 0.00 in0.0 mm 0.00 in/hr0.0 mm/hr 0.00 in0.0 mm
02:50 AM 62.0°F16.7°C 59.6°F15.3°C 92% 3.3 mph NW5.3 kmh NW 4.7 mph7.6 kmh 30.03 in1016.9 mb 0.00 in0.0 mm 0.00 in/hr0.0 mm/hr 0.00 in0.0 mm
02:40 AM 62.1°F16.7°C 59.7°F15.4°C 92% 4.5 mph NNW7.2 kmh NNW 5.5 mph8.9 kmh 30.03 in1016.9 mb 0.00 in0.0 mm 0.00 in/hr0.0 mm/hr 0.00 in0.0 mm
02:30 AM 62.2°F16.8°C 59.8°F15.4°C 92% 4.8 mph NW7.7 kmh NW 6.2 mph10.0 kmh 30.04 in1017.3 mb 0.00 in0.0 mm 0.00 in/hr0.0 mm/hr 0.00 in0.0 mm
02:20 AM 62.3°F16.8°C 59.9°F15.5°C 92% 3.5 mph NW5.6 kmh NW 4.5 mph7.2 kmh 30.04 in1017.3 mb 0.00 in0.0 mm 0.00 in/hr0.0 mm/hr 0.00 in0.0 mm
02:10 AM 62.5°F16.9°C 60.1°F15.6°C 92% 1.1 mph NW1.8 kmh NW 3.7 mph6.0 kmh 30.04 in1017.3 mb 0.00 in0.0 mm 0.00 in/hr0.0 mm/hr 0.00 in0.0 mm
02:00 AM 62.6°F17.0°C 60.2°F15.7°C 92% 4.4 mph NW7.1 kmh NW 7.1 mph11.4 kmh 30.04 in1017.3 mb 0.00 in0.0 mm 0.00 in/hr0.0 mm/hr 0.00 in0.0 mm
01:50 AM 62.7°F17.1°C 60.3°F15.7°C 92% 6.8 mph NW10.9 kmh NW 8.3 mph13.4 kmh 30.04 in1017.3 mb 0.00 in0.0 mm 0.00 in/hr0.0 mm/hr 0.00 in0.0 mm
01:40 AM 62.6°F17.0°C 60.2°F15.7°C 92% 6.4 mph NNW10.3 kmh NNW 8.4 mph13.5 kmh 30.04 in1017.3 mb 0.00 in0.0 mm 0.00 in/hr0.0 mm/hr 0.00 in0.0 mm
01:30 AM 62.6°F17.0°C 60.3°F15.7°C 92% 6.5 mph NW10.5 kmh NW 8.7 mph14.0 kmh 30.05 in1017.6 mb 0.00 in0.0 mm 0.00 in/hr0.0 mm/hr 0.00 in0.0 mm
01:20 AM 62.8°F17.1°C 60.4°F15.8°C 92% 6.0 mph NW9.7 kmh NW 6.2 mph10.0 kmh 30.05 in1017.6 mb 0.00 in0.0 mm 0.00 in/hr0.0 mm/hr 0.00 in0.0 mm
01:10 AM 62.7°F17.1°C 60.3°F15.7°C 92% 5.6 mph WNW9.0 kmh WNW 8.7 mph14.0 kmh 30.05 in1017.6 mb 0.00 in0.0 mm 0.00 in/hr0.0 mm/hr 0.00 in0.0 mm
01:00 AM 62.8°F17.1°C 60.1°F15.6°C 91% 7.8 mph NW12.6 kmh NW 11.2 mph18.0 kmh 30.05 in1017.6 mb 0.00 in0.0 mm 0.00 in/hr0.0 mm/hr 0.00 in0.0 mm
12:50 AM 63.0°F17.2°C 60.3°F15.7°C 91% 7.3 mph NW11.7 kmh NW 10.7 mph17.2 kmh 30.05 in1017.6 mb 0.00 in0.0 mm 0.00 in/hr0.0 mm/hr 0.00 in0.0 mm
12:40 AM 63.2°F17.3°C 60.5°F15.8°C 91% 5.0 mph NW8.0 kmh NW 6.4 mph10.3 kmh 30.05 in1017.6 mb 0.00 in0.0 mm 0.00 in/hr0.0 mm/hr 0.00 in0.0 mm
12:30 AM 63.2°F17.3°C 60.6°F15.9°C 91% 5.8 mph WNW9.3 kmh WNW 6.2 mph10.0 kmh 30.05 in1017.6 mb 0.00 in0.0 mm 0.00 in/hr0.0 mm/hr 0.00 in0.0 mm
12:20 AM 63.4°F17.4°C 60.7°F15.9°C 91% 3.9 mph W6.3 kmh W 4.6 mph7.4 kmh 30.05 in1017.6 mb 0.00 in0.0 mm 0.00 in/hr0.0 mm/hr 0.00 in0.0 mm
12:10 AM 63.7°F17.6°C 61.0°F16.1°C 91% 6.0 mph WSW9.7 kmh WSW 9.4 mph15.1 kmh 30.05 in1017.6 mb 0.00 in0.0 mm 0.00 in/hr0.0 mm/hr 0.00 in0.0 mm
12:00 AM 63.8°F17.7°C 61.1°F16.2°C 91% 4.6 mph NW7.4 kmh NW 5.8 mph9.3 kmh 30.05 in1017.6 mb 0.00 in0.0 mm 0.00 in/hr0.0 mm/hr 0.00 in0.0 mm